Time;durP1;ratioP1;P1;durP2;ratioP2;P2;SDS_P1;SDS_P2;PMS_P1;PMS_P2;Temp;Humidity;BMP_temperature;BMP_pressure;BME280_temperature;BME280_humidity;BME280_pressure;Samples;Min_cycle;Max_cycle;Signal;HPM_P1;HPM_P2
2022/04/15 06:54:25;;;;;;;17.27;6.73;;;13.60;99.90;15.80;97086.00;;;;4891758;23;20309;-88
2022/04/15 06:56:54;;;;;;;11.57;7.30;;;14.10;99.90;16.10;97088.00;;;;4959527;28;20204;-88
2022/04/15 06:59:22;;;;;;;11.07;6.70;;;14.30;99.90;16.20;97097.00;;;;4969260;28;20214;-88
2022/04/15 07:01:51;;;;;;;13.27;7.80;;;14.50;99.90;16.20;97103.00;;;;4968418;28;20291;-88
2022/04/15 07:04:20;;;;;;;13.53;7.30;;;14.70;99.90;16.40;97110.00;;;;4971543;28;20207;-87
2022/04/15 07:06:49;;;;;;;9.80;6.37;;;14.80;99.90;16.40;97117.00;;;;4976155;28;20199;-88
2022/04/15 07:09:18;;;;;;;10.30;7.33;;;15.00;99.90;16.40;97118.00;;;;4972339;28;20306;-88
2022/04/15 07:11:48;;;;;;;9.13;7.13;;;15.00;99.90;16.30;97121.00;;;;4970756;28;20257;-88
2022/04/15 07:14:17;;;;;;;9.53;6.47;;;15.00;99.90;16.20;97117.00;;;;4973550;28;20254;-88
2022/04/15 07:16:46;;;;;;;8.00;6.53;;;15.00;99.90;16.20;97121.00;;;;4960597;28;20207;-87
2022/04/15 07:19:14;;;;;;;12.53;6.97;;;15.00;99.90;16.20;97124.00;;;;4965823;28;20358;-87
2022/04/15 07:21:44;;;;;;;11.03;6.90;;;15.00;99.90;16.10;97130.00;;;;4973059;28;20214;-86
2022/04/15 07:24:13;;;;;;;10.33;7.37;;;15.00;99.90;16.10;97128.00;;;;4972042;28;20207;-86
2022/04/15 07:26:41;;;;;;;8.50;6.73;;;15.00;99.90;16.00;97132.00;;;;4968200;28;20214;-87
2022/04/15 07:29:11;;;;;;;9.53;7.47;;;15.00;99.90;16.00;97138.00;;;;4953176;28;20212;-87
2022/04/15 07:31:42;;;;;;;12.87;7.70;;;14.90;99.90;16.00;97136.00;;;;4957649;28;20222;-86
2022/04/15 07:34:10;;;;;;;10.10;8.37;;;14.90;99.90;15.90;97140.00;;;;4973596;28;20260;-86
2022/04/15 07:36:48;;;;;;;8.33;7.40;;;14.90;99.90;15.80;97146.00;;;;4972122;28;20211;-87
2022/04/15 07:39:17;;;;;;;10.67;7.97;;;14.80;99.90;15.70;97153.00;;;;4974598;28;20220;-87
2022/04/15 07:41:46;;;;;;;9.53;7.83;;;14.70;99.90;15.50;97160.00;;;;4969270;28;20315;-86
2022/04/15 07:44:17;;;;;;;9.73;8.00;;;14.70;99.90;15.40;97169.00;;;;4967727;28;20231;-86
2022/04/15 07:46:46;;;;;;;11.70;8.93;;;14.60;99.90;15.20;97167.00;;;;4972910;28;20211;-86
2022/04/15 07:49:16;;;;;;;11.87;8.27;;;14.50;99.90;15.10;97176.00;;;;4972166;28;20314;-86
2022/04/15 07:51:44;;;;;;;11.03;8.80;;;14.40;99.90;15.00;97181.00;;;;4971817;28;20394;-86
2022/04/15 07:54:13;;;;;;;15.47;12.60;;;14.30;99.90;14.90;97180.00;;;;4960348;28;20236;-86
2022/04/15 07:56:42;;;;;;;13.10;10.67;;;14.20;99.90;14.80;97182.00;;;;4954844;28;20231;-86
2022/04/15 07:59:10;;;;;;;12.00;10.73;;;14.10;99.90;14.80;97183.00;;;;4971200;28;20221;-86
2022/04/15 08:01:40;;;;;;;14.63;12.23;;;14.00;99.90;14.50;97193.00;;;;4972447;28;20239;-86
2022/04/15 08:04:09;;;;;;;13.97;12.47;;;13.90;99.90;14.40;97187.00;;;;4972185;28;20203;-87
2022/04/15 08:06:38;;;;;;;15.37;12.07;;;13.80;99.90;14.50;97183.00;;;;4968445;28;20200;-86
2022/04/15 08:09:07;;;;;;;14.83;13.27;;;13.70;99.90;14.60;97188.00;;;;4952478;28;20294;-87
2022/04/15 08:11:35;;;;;;;14.17;12.67;;;13.70;99.90;14.60;97194.00;;;;4952820;28;20200;-86
2022/04/15 08:14:04;;;;;;;15.83;12.33;;;13.70;99.90;14.70;97193.00;;;;4963344;28;20232;-88
2022/04/15 08:16:33;;;;;;;14.20;12.67;;;13.70;99.90;14.70;97188.00;;;;4972546;28;20207;-86
2022/04/15 08:19:04;;;;;;;15.67;12.80;;;13.70;99.90;14.80;97197.00;;;;4971664;28;20215;-86
2022/04/15 08:21:33;;;;;;;18.10;14.00;;;13.70;99.90;14.60;97187.00;;;;4954625;28;20223;-86
2022/04/15 08:24:01;;;;;;;17.17;14.03;;;13.70;99.90;14.50;97184.00;;;;4963866;28;20192;-86
2022/04/15 08:26:30;;;;;;;15.73;13.80;;;13.70;99.90;14.40;97190.00;;;;4963655;28;20291;-86
2022/04/15 08:28:59;;;;;;;14.57;13.03;;;13.70;99.90;14.50;97181.00;;;;4952515;28;20223;-86
2022/04/15 08:31:28;;;;;;;16.23;14.23;;;13.70;99.90;14.50;97192.00;;;;4960051;28;20195;-86
2022/04/15 08:33:56;;;;;;;15.37;13.77;;;13.70;99.90;14.60;97192.00;;;;4970891;28;20285;-85
2022/04/15 08:36:26;;;;;;;15.30;13.73;;;13.70;99.90;14.60;97188.00;;;;4967088;28;20210;-86
2022/04/15 08:38:55;;;;;;;15.17;13.70;;;13.70;99.90;14.50;97186.00;;;;4971360;28;20278;-85
2022/04/15 08:41:26;;;;;;;16.60;14.83;;;13.80;99.90;14.60;97186.00;;;;4971654;28;20219;-85
2022/04/15 08:43:55;;;;;;;16.57;14.67;;;13.80;99.90;14.90;97178.00;;;;4971228;28;20192;-85
2022/04/15 08:46:25;;;;;;;18.20;14.37;;;13.90;99.90;15.30;97178.00;;;;4970185;28;20227;-85
2022/04/15 08:48:55;;;;;;;13.87;12.47;;;14.00;99.90;15.50;97193.00;;;;4973695;23;20234;-85
2022/04/15 08:51:45;;;;;;;16.90;14.23;;;14.10;99.90;15.70;97186.00;;;;4970379;28;20218;-86
2022/04/15 08:54:34;;;;;;;14.70;13.23;;;14.30;99.90;15.90;97183.00;;;;4959525;28;20211;-85
2022/04/15 08:57:23;;;;;;;17.47;13.53;;;14.50;99.90;16.30;97183.00;;;;4969528;28;20199;-86
2022/04/15 09:00:14;;;;;;;13.60;12.30;;;14.70;99.90;16.40;97181.00;;;;4970400;28;20238;-85
2022/04/15 09:02:42;;;;;;;14.60;12.40;;;14.90;99.90;16.60;97183.00;;;;4973608;28;20258;-86
2022/04/15 09:05:13;;;;;;;15.60;13.97;;;15.10;99.90;16.40;97187.00;;;;4975610;28;20223;-86
2022/04/15 09:07:43;;;;;;;17.90;14.33;;;15.20;99.90;15.90;97184.00;;;;4973555;28;20219;-86
2022/04/15 09:10:12;;;;;;;15.60;13.40;;;15.20;99.90;15.50;97187.00;;;;4975751;28;20227;-86
2022/04/15 09:12:42;;;;;;;15.67;13.97;;;15.20;99.90;15.70;97183.00;;;;4975528;28;20234;-86
2022/04/15 09:15:13;;;;;;;15.30;13.80;;;15.10;99.90;15.90;97184.00;;;;4975288;28;20237;-85
2022/04/15 09:17:46;;;;;;;13.90;12.60;;;15.10;99.90;15.80;97193.00;;;;4974297;28;20282;-86
2022/04/15 09:20:15;;;;;;;19.00;12.23;;;15.00;99.90;16.10;97193.00;;;;4975490;28;20223;-86
2022/04/15 09:22:45;;;;;;;13.70;12.30;;;15.00;99.90;16.40;97207.00;;;;4974809;28;20230;-85
2022/04/15 09:25:14;;;;;;;15.27;13.70;;;15.10;99.90;16.50;97199.00;;;;4975035;28;20203;-86
2022/04/15 09:27:43;;;;;;;15.37;13.73;;;15.10;99.90;16.10;97194.00;;;;4974186;28;20206;-86
2022/04/15 09:30:12;;;;;;;17.53;13.27;;;15.20;99.90;15.90;97194.00;;;;4975504;28;20215;-86
2022/04/15 09:32:41;;;;;;;15.17;12.60;;;15.20;99.90;15.80;97197.00;;;;4975178;28;20210;-86
2022/04/15 09:35:16;;;;;;;13.30;11.90;;;15.10;99.90;16.30;97204.00;;;;4980677;28;20287;-86
2022/04/15 09:37:46;;;;;;;14.23;12.87;;;15.10;99.90;16.40;97206.00;;;;4972464;28;20203;-85
2022/04/15 09:40:18;;;;;;;14.30;11.70;;;15.10;99.90;16.20;97201.00;;;;4974781;28;20223;-85
2022/04/15 09:42:48;;;;;;;14.73;11.63;;;15.10;99.90;16.20;97210.00;;;;4971642;28;20218;-85
2022/04/15 09:45:19;;;;;;;13.17;10.60;;;15.10;99.90;16.30;97204.00;;;;4972105;28;20238;-85
2022/04/15 09:47:57;;;;;;;13.83;11.40;;;15.10;99.90;16.30;97196.00;;;;4973780;28;20266;-86
2022/04/15 09:50:28;;;;;;;16.73;12.13;;;15.10;99.90;16.20;97184.00;;;;4973465;28;20323;-85
2022/04/15 09:53:10;;;;;;;13.30;11.73;;;15.10;99.90;16.20;97183.00;;;;4973944;28;20223;-85
2022/04/15 09:55:40;;;;;;;12.57;11.27;;;15.10;99.90;16.00;97179.00;;;;4962549;28;20207;-86
2022/04/15 09:58:13;;;;;;;13.73;12.17;;;15.00;99.90;15.40;97193.00;;;;4973280;28;20229;-85
2022/04/15 10:00:45;;;;;;;12.07;10.87;;;14.90;99.90;15.50;97200.00;;;;4973044;28;20216;-85
2022/04/15 10:03:20;;;;;;;10.30;9.00;;;14.80;99.90;15.70;97207.00;;;;4971428;28;20223;-87
2022/04/15 10:05:50;;;;;;;11.10;9.97;;;14.70;99.90;15.70;97206.00;;;;4975512;28;20198;-85
2022/04/15 10:08:22;;;;;;;11.70;10.50;;;14.60;99.90;15.90;97199.00;;;;4975155;28;20258;-86
2022/04/15 10:10:52;;;;;;;12.10;10.90;;;14.60;99.90;16.00;97182.00;;;;4975541;28;20199;-86
2022/04/15 10:13:28;;;;;;;11.70;10.57;;;14.70;99.90;16.10;97184.00;;;;4973209;28;20203;-86
2022/04/15 10:15:57;;;;;;;13.93;12.47;;;14.70;99.90;16.20;97184.00;;;;4974496;28;20214;-86
2022/04/15 10:18:27;;;;;;;13.03;11.70;;;14.80;99.90;16.20;97195.00;;;;4973506;28;20199;-86
2022/04/15 10:20:58;;;;;;;15.83;12.17;;;14.90;99.90;16.30;97201.00;;;;4974160;28;20211;-86
2022/04/15 10:23:28;;;;;;;13.30;12.10;;;14.90;99.90;16.40;97188.00;;;;4973019;28;20215;-87
2022/04/15 10:26:00;;;;;;;12.77;11.60;;;15.00;99.90;16.60;97182.00;;;;4973578;28;20209;-86
2022/04/15 10:28:42;;;;;;;19.37;12.73;;;15.10;99.90;16.90;97180.00;;;;4973429;28;20287;-86
2022/04/15 10:31:14;;;;;;;18.80;14.10;;;15.30;99.90;17.20;97184.00;;;;4974119;28;20202;-85
2022/04/15 10:33:44;;;;;;;15.47;14.00;;;15.50;99.90;17.50;97185.00;;;;4973637;28;20203;-87
2022/04/15 10:36:15;;;;;;;15.00;13.50;;;15.70;99.90;17.80;97177.00;;;;4961086;28;20208;-86
2022/04/15 10:39:14;;;;;;;15.83;14.10;;;16.00;99.90;18.20;97173.00;;;;4972766;28;20237;-87
2022/04/15 10:41:52;;;;;;;17.93;13.30;;;16.20;99.90;18.70;97177.00;;;;4973484;28;20235;-86
2022/04/15 10:44:35;;;;;;;15.33;13.87;;;16.60;99.90;18.90;97185.00;;;;4973743;28;20215;-86
2022/04/15 10:47:14;;;;;;;14.03;12.50;;;16.90;99.90;18.60;97194.00;;;;4973907;28;20207;-87
2022/04/15 10:49:55;;;;;;;15.00;13.47;;;17.00;99.90;18.40;97205.00;;;;4973363;28;20355;-86
2022/04/15 10:52:25;;;;;;;13.77;12.27;;;17.10;99.90;18.30;97191.00;;;;4973839;28;20286;-86
2022/04/15 10:54:59;;;;;;;14.90;12.67;;;17.10;99.90;18.40;97189.00;;;;4973264;28;20204;-86
2022/04/15 10:57:36;;;;;;;14.03;12.60;;;17.10;99.90;18.60;97160.00;;;;4973060;28;20191;-86
2022/04/15 11:03:01;;;;;;;17.67;12.80;;;17.30;99.90;19.30;97193.00;;;;4972908;28;20315;-86
2022/04/15 11:05:55;;;;;;;13.83;12.43;;;17.60;99.90;18.80;97196.00;;;;4973588;28;20203;-87
2022/04/15 11:08:26;;;;;;;15.03;12.20;;;17.60;99.90;19.00;97196.00;;;;4982998;28;20199;-87
2022/04/15 11:11:03;;;;;;;15.93;13.87;;;17.60;99.90;18.90;97188.00;;;;4983844;28;20199;-87
2022/04/15 11:14:04;;;;;;;14.67;12.83;;;17.60;99.90;18.90;97186.00;;;;4973434;28;20207;-88
2022/04/15 11:16:46;;;;;;;12.57;11.23;;;17.60;99.90;18.70;97173.00;;;;4973143;28;20282;-88
2022/04/15 11:19:23;;;;;;;15.30;12.60;;;17.60;99.90;19.10;97162.00;;;;4972415;28;20222;-87
2022/04/15 11:21:53;;;;;;;12.70;11.40;;;17.70;99.90;19.60;97181.00;;;;4972979;28;20195;-87
2022/04/15 11:24:25;;;;;;;13.97;12.33;;;17.80;99.90;19.80;97177.00;;;;4972395;28;20230;-87
2022/04/15 11:27:03;;;;;;;12.23;10.97;;;18.00;99.90;19.50;97189.00;;;;4963031;28;20286;-87
2022/04/15 11:29:33;;;;;;;13.53;11.13;;;18.10;99.90;19.20;97185.00;;;;4972379;28;20282;-88
2022/04/15 11:32:05;;;;;;;13.63;10.30;;;18.10;99.90;19.30;97189.00;;;;4972617;28;20192;-88
2022/04/15 11:34:36;;;;;;;13.30;10.83;;;18.00;99.90;19.10;97189.00;;;;4958729;28;20203;-87
2022/04/15 11:37:07;;;;;;;11.90;10.27;;;18.00;99.90;19.00;97183.00;;;;4970715;28;20238;-87
2022/04/15 11:39:36;;;;;;;11.77;10.60;;;17.90;99.90;19.40;97183.00;;;;4970123;28;20258;-88
2022/04/15 11:42:12;;;;;;;13.80;11.77;;;17.90;99.90;19.70;97189.00;;;;4969863;28;20191;-88
2022/04/15 11:44:42;;;;;;;13.93;10.37;;;18.00;99.90;19.40;97172.00;;;;4970637;28;20307;-87
2022/04/15 11:47:18;;;;;;;16.00;10.90;;;18.00;99.90;19.50;97168.00;;;;4971608;28;20203;-88
2022/04/15 11:49:49;;;;;;;12.67;10.17;;;18.00;99.90;19.40;97155.00;;;;4969341;28;20218;-88
2022/04/15 11:52:24;;;;;;;14.87;11.20;;;18.10;99.90;21.40;97158.00;;;;4971736;28;20203;-88
2022/04/15 11:54:52;;;;;;;16.17;11.53;;;18.60;99.90;22.20;97108.00;;;;4972527;28;20210;-88
2022/04/15 11:57:22;;;;;;;11.83;10.63;;;19.20;99.90;22.60;97109.00;;;;4973276;28;20209;-88
2022/04/15 11:59:51;;;;;;;16.53;10.70;;;20.00;99.90;23.70;97101.00;;;;4976786;28;20223;-89
2022/04/15 12:02:23;;;;;;;12.20;10.23;;;20.60;99.90;22.90;97091.00;;;;4972065;28;20203;-88
2022/04/15 12:04:53;;;;;;;11.23;7.93;;;21.10;99.90;24.30;97094.00;;;;4969240;28;20227;-85
2022/04/15 12:07:23;;;;;;;7.10;6.40;;;21.50;99.90;24.40;97083.00;;;;4972190;28;20195;-88
2022/04/15 12:09:53;;;;;;;14.20;6.70;;;22.00;99.90;25.60;97094.00;;;;4971432;28;20254;-88
2022/04/15 12:12:25;;;;;;;7.30;5.90;;;22.40;99.90;26.30;97082.00;;;;4972627;28;20203;-88
2022/04/15 12:14:54;;;;;;;7.27;6.67;;;22.90;99.50;24.70;97136.00;;;;4971697;28;20214;-88
2022/04/15 12:17:24;;;;;;;7.83;6.50;;;23.10;95.70;24.10;97060.00;;;;4970003;28;20203;-88
2022/04/15 12:19:52;;;;;;;9.47;6.10;;;22.90;95.90;25.70;97069.00;;;;4966713;28;20222;-87
2022/04/15 12:22:21;;;;;;;7.23;6.53;;;23.20;94.40;24.50;97132.00;;;;4971320;28;20197;-87
2022/04/15 12:24:49;;;;;;;8.13;5.40;;;23.20;92.70;24.10;97056.00;;;;4971338;28;20302;-88
2022/04/15 12:27:19;;;;;;;8.90;6.30;;;23.30;91.70;25.80;97057.00;;;;4967977;28;20216;-88
2022/04/15 12:29:51;;;;;;;8.70;6.30;;;23.60;91.50;27.40;97049.00;;;;4971179;28;20218;-89
2022/04/15 12:32:25;;;;;;;8.90;6.00;;;24.10;92.90;27.60;97052.00;;;;4971714;28;20202;-88
2022/04/15 12:35:14;;;;;;;8.30;6.00;;;24.50;90.00;27.50;97114.00;;;;4972046;28;20213;-88
2022/04/15 12:37:46;;;;;;;11.87;7.53;;;25.00;85.30;26.40;97107.00;;;;4971106;28;20202;-89
2022/04/15 12:40:33;;;;;;;9.53;5.90;;;24.90;84.20;26.50;97029.00;;;;4972179;28;20266;-88
2022/04/15 12:43:12;;;;;;;6.43;4.67;;;24.90;80.20;25.80;97030.00;;;;4972036;28;20218;-88
2022/04/15 12:45:53;;;;;;;6.20;5.43;;;25.00;75.90;25.70;97103.00;;;;4972581;28;20207;-88
2022/04/15 12:48:23;;;;;;;12.63;6.33;;;24.80;76.20;25.80;97022.00;;;;4970699;28;20231;-88
2022/04/15 12:50:55;;;;;;;8.80;7.20;;;24.50;79.50;25.30;97016.00;;;;4971263;28;20244;-88
2022/04/15 12:53:24;;;;;;;9.27;5.77;;;24.40;80.50;26.00;97095.00;;;;4971260;28;20353;-88
2022/04/15 12:55:58;;;;;;;4.90;4.40;;;24.40;78.40;24.20;97100.00;;;;4970657;28;20192;-87
2022/04/15 12:58:28;;;;;;;6.93;4.60;;;24.00;73.90;25.10;97092.00;;;;4969387;28;20210;-86
2022/04/15 13:01:00;;;;;;;5.33;4.60;;;23.70;76.00;25.60;97083.00;;;;4971687;28;20200;-87
2022/04/15 13:03:34;;;;;;;6.03;4.97;;;23.60;77.20;26.20;97083.00;;;;4971478;28;20247;-87
2022/04/15 13:06:05;;;;;;;6.73;5.00;;;23.80;78.90;26.40;97019.00;;;;4971225;28;20256;-87
2022/04/15 13:08:35;;;;;;;6.00;5.00;;;24.20;75.60;25.40;97075.00;;;;4970384;28;20208;-87
2022/04/15 13:11:04;;;;;;;11.33;5.57;;;24.20;76.50;25.70;97091.00;;;;4971538;28;20216;-87
2022/04/15 13:13:34;;;;;;;6.97;4.53;;;24.00;76.10;25.00;97088.00;;;;4973288;28;20199;-87
2022/04/15 13:16:05;;;;;;;6.73;4.77;;;23.80;76.80;24.20;97092.00;;;;4972490;28;20197;-87
2022/04/15 13:18:34;;;;;;;8.23;5.30;;;23.60;75.60;22.10;97081.00;;;;4971356;28;20226;-87
2022/04/15 13:21:04;;;;;;;12.83;5.27;;;23.10;73.40;22.30;97092.00;;;;4971908;28;20212;-87
2022/04/15 13:23:32;;;;;;;7.63;4.00;;;22.50;74.70;22.30;97090.00;;;;4971778;28;20202;-86
2022/04/15 13:26:02;;;;;;;5.13;3.03;;;22.10;75.60;21.90;97076.00;;;;4971921;28;20196;-86
2022/04/15 13:28:30;;;;;;;2.83;2.47;;;21.70;73.80;20.70;97081.00;;;;4972570;28;20250;-87
2022/04/15 13:30:59;;;;;;;2.50;2.30;;;21.30;70.00;21.50;97079.00;;;;4972967;28;20200;-86
2022/04/15 13:33:29;;;;;;;6.33;2.73;;;21.00;71.10;22.00;97078.00;;;;4972947;28;20308;-88
2022/04/15 13:35:57;;;;;;;7.73;3.17;;;20.90;71.00;22.10;97080.00;;;;4972899;28;20258;-85
2022/04/15 13:38:26;;;;;;;4.63;3.50;;;20.80;70.80;22.20;97083.00;;;;4960994;28;20203;-85
2022/04/15 13:40:56;;;;;;;9.63;8.00;;;20.80;70.70;22.00;97043.00;;;;4966883;28;20201;-85
2022/04/15 13:43:24;;;;;;;14.13;9.63;;;20.80;69.70;23.20;97064.00;;;;4964534;28;20258;-86
2022/04/15 13:45:54;;;;;;;3.57;2.17;;;21.00;70.30;22.20;96981.00;;;;4971771;28;20228;-86
2022/04/15 13:48:22;;;;;;;5.17;2.47;;;21.20;66.70;22.90;97061.00;;;;4974226;28;20207;-84
2022/04/15 13:50:52;;;;;;;5.73;2.30;;;21.40;67.60;22.10;97055.00;;;;4975694;28;20203;-85
2022/04/15 13:58:53;;;;;;;2.43;2.13;;;22.20;62.90;23.70;97077.00;;;;4971497;28;20219;-87
2022/04/15 14:01:26;;;;;;;1.43;1.20;;;22.30;62.90;21.40;97070.00;;;;4975678;28;20257;-86
2022/04/15 14:03:57;;;;;;;4.27;2.70;;;22.10;59.90;22.40;97065.00;;;;4975238;28;20275;-86
2022/04/15 14:06:26;;;;;;;2.73;1.83;;;21.80;60.40;23.20;97065.00;;;;4974394;28;20219;-87
2022/04/15 14:08:55;;;;;;;2.03;1.83;;;21.70;62.20;22.90;97075.00;;;;4973946;28;20219;-87
2022/04/15 14:11:24;;;;;;;9.60;5.00;;;21.60;62.40;22.40;97066.00;;;;4973994;28;20199;-87
2022/04/15 14:13:52;;;;;;;8.47;4.13;;;21.40;62.70;21.80;97071.00;;;;4975005;28;20219;-86
2022/04/15 14:16:21;;;;;;;4.93;3.43;;;21.20;61.60;21.40;97075.00;;;;4977067;28;20195;-87
2022/04/15 14:18:49;;;;;;;4.37;2.80;;;20.90;61.40;21.50;97081.00;;;;4975006;28;20298;-86
2022/04/15 14:21:18;;;;;;;4.63;3.17;;;20.70;62.50;20.50;97083.00;;;;4975846;28;20212;-88
2022/04/15 14:23:48;;;;;;;3.63;2.00;;;20.30;62.50;20.30;97090.00;;;;4976565;28;20214;-86
2022/04/15 14:26:17;;;;;;;7.87;4.83;;;20.00;63.40;20.50;97086.00;;;;4975434;28;20207;-86
2022/04/15 14:28:46;;;;;;;11.57;7.03;;;19.80;64.10;20.70;97078.00;;;;4973385;28;20220;-86
2022/04/15 14:31:16;;;;;;;10.70;6.53;;;19.60;65.10;20.60;97075.00;;;;4972605;28;20282;-86
2022/04/15 14:33:45;;;;;;;12.07;6.97;;;19.50;65.60;20.20;97076.00;;;;4974277;28;20214;-86
2022/04/15 14:36:14;;;;;;;12.77;5.60;;;19.40;65.50;20.40;97078.00;;;;4974638;28;20211;-86
2022/04/15 14:38:43;;;;;;;3.20;2.17;;;19.30;65.20;20.30;97084.00;;;;4975316;28;20195;-87
2022/04/15 14:41:14;;;;;;;4.83;2.10;;;19.20;65.40;20.00;97080.00;;;;4976026;28;20203;-86
2022/04/15 14:43:43;;;;;;;3.77;1.83;;;19.10;64.80;21.10;97044.00;;;;4974255;28;20199;-86
2022/04/15 14:46:12;;;;;;;2.20;1.70;;;19.20;65.40;21.70;97013.00;;;;4973864;28;20310;-86
2022/04/15 14:48:46;;;;;;;2.53;1.30;;;19.50;66.30;22.60;97044.00;;;;4977460;23;20278;-84
2022/04/15 14:51:15;;;;;;;2.57;1.63;;;20.00;65.40;22.60;97010.00;;;;4977510;28;20222;-86
2022/04/15 14:53:44;;;;;;;1.97;1.43;;;20.50;63.10;24.20;97010.00;;;;4978306;28;20218;-87
2022/04/15 14:56:14;;;;;;;2.53;2.33;;;21.40;62.80;24.90;97007.00;;;;4976578;28;20223;-84
2022/04/15 14:58:43;;;;;;;4.00;1.43;;;22.40;61.40;23.90;97064.00;;;;4974313;28;20192;-84
2022/04/15 15:01:11;;;;;;;1.17;1.07;;;22.80;59.00;22.90;96991.00;;;;4976776;28;20192;-85
2022/04/15 15:03:40;;;;;;;1.80;1.57;;;23.00;56.90;24.00;97004.00;;;;4973710;28;20200;-86
2022/04/15 15:06:09;;;;;;;1.50;1.40;;;23.10;57.30;26.30;97016.00;;;;4973313;28;20227;-86
2022/04/15 15:08:37;;;;;;;1.57;1.47;;;23.50;57.40;27.10;97019.00;;;;4973365;28;20199;-85
2022/04/15 15:11:08;;;;;;;4.20;1.53;;;24.30;56.80;27.60;97016.00;;;;4973714;28;20202;-86
2022/04/15 15:13:39;;;;;;;1.97;1.40;;;25.10;55.20;26.80;97014.00;;;;4972880;28;20196;-85
2022/04/15 15:16:10;;;;;;;2.77;1.83;;;25.70;53.30;27.80;97004.00;;;;4973025;28;20224;-86
2022/04/15 15:18:39;;;;;;;1.40;1.30;;;26.10;52.30;27.30;97014.00;;;;4972315;28;20198;-85
2022/04/15 15:21:10;;;;;;;2.17;1.10;;;26.40;51.60;27.50;97070.00;;;;4972854;28;20215;-86
2022/04/15 15:29:48;;;;;;;1.70;1.60;;;26.60;51.00;25.20;97063.00;;;;4972421;28;20198;-86
2022/04/15 15:32:02;;;;;;;1.50;1.40;;;24.30;52.30;23.60;97009.00;;;;4977120;28;20204;-84
2022/04/15 15:34:30;;;;;;;1.80;1.70;;;23.60;53.10;23.40;97061.00;;;;4975735;28;20195;-85
2022/04/15 15:36:59;;;;;;;1.53;1.40;;;23.10;53.90;23.00;97062.00;;;;4977263;28;20221;-87
2022/04/15 15:39:27;;;;;;;2.23;1.70;;;22.60;54.70;22.70;97061.00;;;;4977755;28;20286;-86
2022/04/15 15:41:56;;;;;;;1.77;1.37;;;22.20;55.40;22.40;97052.00;;;;4977834;28;20203;-83
2022/04/15 15:44:31;;;;;;;2.87;1.67;;;21.80;56.50;22.20;97063.00;;;;4979143;28;20192;-85
2022/04/15 15:47:00;;;;;;;2.43;1.90;;;21.50;57.10;21.90;97062.00;;;;4979021;28;20259;-86
2022/04/15 15:49:28;;;;;;;1.80;1.40;;;21.20;58.50;21.80;97054.00;;;;4979068;28;20262;-82
2022/04/15 15:51:58;;;;;;;1.50;1.40;;;20.90;59.00;21.50;97042.00;;;;4979446;28;20209;-84
2022/04/15 15:54:26;;;;;;;2.90;1.63;;;20.80;60.40;21.80;97033.00;;;;4980123;28;20215;-85
2022/04/15 15:56:55;;;;;;;1.63;1.53;;;20.60;62.20;22.10;97015.00;;;;4979254;28;20226;-86
2022/04/15 15:59:24;;;;;;;1.40;1.30;;;20.70;63.70;23.10;97003.00;;;;4978600;28;20192;-85
2022/04/15 16:01:55;;;;;;;2.20;1.63;;;20.90;63.30;23.40;97025.00;;;;4977059;28;20530;-84
2022/04/15 16:04:23;;;;;;;2.53;1.60;;;21.40;63.40;23.00;97025.00;;;;4976324;28;20203;-84
2022/04/15 16:06:52;;;;;;;1.60;1.50;;;21.70;61.90;23.10;97030.00;;;;4976598;28;20227;-84
2022/04/15 16:09:20;;;;;;;2.20;1.50;;;21.90;60.30;22.90;97032.00;;;;4976970;28;20203;-83
2022/04/15 16:11:49;;;;;;;1.93;1.33;;;21.80;59.20;22.30;97032.00;;;;4977476;28;20200;-85
2022/04/15 16:14:18;;;;;;;2.03;1.93;;;21.70;59.40;20.30;97029.00;;;;4985890;28;20200;-83
2022/04/15 16:16:46;;;;;;;2.33;2.10;;;21.10;60.90;20.50;97038.00;;;;4989658;28;20246;-87
2022/04/15 16:19:16;;;;;;;5.70;1.73;;;20.60;62.60;20.50;97036.00;;;;4982347;28;20195;-83
2022/04/15 16:21:44;;;;;;;1.90;1.80;;;20.20;64.20;20.40;97045.00;;;;4981741;28;20239;-86
2022/04/15 16:24:13;;;;;;;3.47;2.33;;;19.90;65.50;20.10;97043.00;;;;4981092;28;20274;-83
2022/04/15 16:26:41;;;;;;;2.00;1.90;;;19.60;66.50;19.90;97048.00;;;;4980675;28;20285;-84
2022/04/15 16:29:12;;;;;;;4.13;1.70;;;19.30;66.90;19.40;97042.00;;;;4978208;28;20207;-86
2022/04/15 16:31:41;;;;;;;2.00;1.80;;;19.10;67.10;19.20;97038.00;;;;4980561;28;20187;-86
2022/04/15 16:34:09;;;;;;;1.83;1.67;;;18.70;67.20;19.00;97047.00;;;;4981610;28;20262;-84
2022/04/15 16:36:39;;;;;;;2.43;2.17;;;18.50;67.90;18.90;97044.00;;;;4969317;28;20215;-85
2022/04/15 16:39:08;;;;;;;3.43;1.63;;;18.20;69.50;18.50;97049.00;;;;4980638;28;20203;-86
2022/04/15 16:41:37;;;;;;;1.60;1.50;;;18.00;70.40;18.20;97052.00;;;;4981352;28;20195;-85
2022/04/15 16:44:07;;;;;;;2.47;1.87;;;17.80;71.20;18.40;97042.00;;;;4980810;28;20210;-85
2022/04/15 16:46:36;;;;;;;2.67;1.40;;;17.60;71.80;18.40;97045.00;;;;4981454;28;20246;-83
2022/04/15 16:49:04;;;;;;;2.30;2.10;;;17.50;72.70;18.10;97046.00;;;;4980060;28;20207;-85
2022/04/15 16:51:33;;;;;;;2.67;2.47;;;17.40;73.80;17.70;97039.00;;;;4980857;28;20226;-87
2022/04/15 16:54:03;;;;;;;4.43;2.73;;;17.20;74.80;17.40;97038.00;;;;4981351;28;20250;-83
2022/04/15 16:59:18;;;;;;;2.23;2.03;;;16.80;77.00;17.60;97038.00;;;;4980929;28;20201;-83
2022/04/15 17:01:47;;;;;;;2.70;1.47;;;16.70;78.50;17.50;97045.00;;;;4982361;28;20203;-84
2022/04/15 17:04:16;;;;;;;2.07;1.97;;;16.70;79.90;17.40;97033.00;;;;4981398;28;20203;-84
2022/04/15 17:06:46;;;;;;;1.87;1.77;;;16.60;79.90;17.30;97037.00;;;;4980727;28;20235;-84
2022/04/15 17:09:16;;;;;;;2.07;1.93;;;16.50;79.70;16.90;97038.00;;;;4980149;28;20694;-84
2022/04/15 17:11:44;;;;;;;2.50;2.23;;;16.40;80.50;17.10;97055.00;;;;4980259;28;20211;-82
2022/04/15 17:14:13;;;;;;;2.50;2.00;;;16.30;81.50;16.90;97046.00;;;;4979850;28;20483;-83
2022/04/15 17:16:41;;;;;;;2.00;1.90;;;16.20;82.70;16.90;97054.00;;;;4980570;28;20230;-86
2022/04/15 17:19:10;;;;;;;2.43;2.20;;;16.10;83.80;16.70;97062.00;;;;4980056;28;20199;-86
2022/04/15 17:21:39;;;;;;;2.50;1.87;;;16.00;84.70;16.80;97064.00;;;;4981154;28;20203;-83
2022/04/15 17:24:09;;;;;;;3.63;2.73;;;15.90;85.30;16.80;97056.00;;;;4984747;28;20200;-83
2022/04/15 17:26:39;;;;;;;3.97;2.30;;;15.80;86.40;16.70;97063.00;;;;4984461;28;20246;-85
2022/04/15 17:29:08;;;;;;;2.17;1.93;;;15.80;87.70;16.80;97064.00;;;;4983719;28;20629;-85
2022/04/15 17:31:36;;;;;;;5.47;3.07;;;15.70;88.20;16.30;97069.00;;;;4984518;28;20199;-86
2022/04/15 17:34:05;;;;;;;6.13;3.13;;;15.70;90.30;15.90;97070.00;;;;4986856;28;20222;-82
2022/04/15 17:36:34;;;;;;;7.70;3.63;;;15.50;91.00;16.00;97085.00;;;;4993815;28;20211;-81
2022/04/15 17:39:03;;;;;;;4.43;4.03;;;15.40;91.80;16.20;97094.00;;;;4988728;28;20208;-86
2022/04/15 17:41:31;;;;;;;3.47;3.07;;;15.30;92.70;15.70;97104.00;;;;4984401;28;20227;-83
2022/04/15 17:44:01;;;;;;;4.03;3.63;;;15.20;94.40;15.60;97102.00;;;;4982819;28;20195;-85
2022/04/15 17:46:31;;;;;;;3.60;3.30;;;15.10;96.00;15.50;97091.00;;;;4967174;28;20215;-84
2022/04/15 17:49:00;;;;;;;3.97;3.58;;;15.00;96.90;15.60;97072.00;;;;4976784;28;20483;-82
2022/04/15 17:51:28;;;;;;;5.03;4.53;;;15.00;99.80;15.60;97076.00;;;;4979028;28;20203;-83
2022/04/15 17:53:57;;;;;;;2.43;2.23;;;14.90;99.90;14.30;97069.00;;;;4976340;28;20195;-84
2022/04/15 17:56:25;;;;;;;4.38;3.53;;;14.50;99.90;14.30;97077.00;;;;4975740;28;20416;-84
2022/04/15 17:58:56;;;;;;;4.03;3.30;;;14.30;99.90;14.20;97083.00;;;;4961990;28;20423;-83
2022/04/15 18:01:30;;;;;;;4.15;3.72;;;14.00;99.90;14.30;97083.00;;;;4975737;28;20404;-84
2022/04/15 18:03:58;;;;;;;3.27;2.97;;;13.90;99.90;14.30;97078.00;;;;4977214;28;20200;-84
2022/04/15 18:06:27;;;;;;;4.13;3.03;;;13.80;99.90;14.20;97082.00;;;;4976147;28;20219;-84
2022/04/15 18:08:55;;;;;;;5.17;3.30;;;13.60;99.90;14.00;97076.00;;;;4976711;28;20203;-85
2022/04/15 18:11:24;;;;;;;3.47;3.17;;;13.50;99.90;13.80;97089.00;;;;4977710;28;20196;-82
2022/04/15 18:13:52;;;;;;;5.87;3.67;;;13.40;99.90;13.60;97082.00;;;;4977394;28;20208;-82